Time;durP1;ratioP1;P1;durP2;ratioP2;P2;SDS_P1;SDS_P2;PMS_P1;PMS_P2;Temp;Humidity;BMP_temperature;BMP_pressure;BME280_temperature;BME280_humidity;BME280_pressure;Samples;Min_cycle;Max_cycle;Signal;HPM_P1;HPM_P2
2022/11/30 00:02:00;;;;;;;53.85;30.30;;;6.80;99.90;;;;;;5052614;28;20040;-74
2022/11/30 00:04:26;;;;;;;54.70;30.70;;;6.70;99.90;;;;;;5064560;28;20044;-74
2022/11/30 00:06:56;;;;;;;54.03;30.35;;;6.80;99.90;;;;;;5083143;28;20124;-74
2022/11/30 00:09:22;;;;;;;54.17;31.65;;;6.80;99.90;;;;;;5040289;28;20481;-74
2022/11/30 00:11:48;;;;;;;53.80;31.08;;;6.80;99.90;;;;;;5058526;28;20060;-74
2022/11/30 00:14:14;;;;;;;53.28;31.27;;;6.80;99.90;;;;;;5060678;28;20178;-74
2022/11/30 00:16:39;;;;;;;56.83;32.25;;;6.80;99.90;;;;;;5070664;28;20049;-74
2022/11/30 00:19:05;;;;;;;60.28;33.92;;;6.80;99.90;;;;;;5041672;28;20558;-74
2022/11/30 00:21:31;;;;;;;60.28;32.90;;;6.80;99.90;;;;;;5057271;28;20056;-74
2022/11/30 00:23:57;;;;;;;61.05;34.08;;;6.80;99.90;;;;;;5058715;28;20132;-74
2022/11/30 00:26:22;;;;;;;58.67;33.92;;;6.80;99.90;;;;;;5060819;28;20472;-74
2022/11/30 00:28:48;;;;;;;61.75;33.33;;;6.70;99.90;;;;;;5041676;28;20487;-74
2022/11/30 00:31:17;;;;;;;59.15;33.92;;;6.70;99.90;;;;;;5025229;28;20045;-74
2022/11/30 00:33:43;;;;;;;62.45;34.53;;;6.80;99.90;;;;;;5057925;28;20143;-74
2022/11/30 00:36:20;;;;;;;56.92;33.25;;;6.70;99.90;;;;;;5069062;28;20407;-74
2022/11/30 00:38:47;;;;;;;62.40;34.42;;;6.80;99.90;;;;;;5091709;28;20048;-74
2022/11/30 00:41:13;;;;;;;62.05;34.05;;;6.80;99.90;;;;;;5089070;28;20077;-74
2022/11/30 00:43:39;;;;;;;61.92;34.25;;;6.80;99.90;;;;;;5083826;28;20493;-74
2022/11/30 00:46:07;;;;;;;63.83;34.45;;;6.80;99.90;;;;;;5109007;28;20122;-74
2022/11/30 00:48:33;;;;;;;68.97;35.50;;;6.80;99.90;;;;;;5097458;28;20105;-74
2022/11/30 00:50:59;;;;;;;66.22;35.50;;;6.80;99.90;;;;;;5077351;28;20056;-74
2022/11/30 00:53:25;;;;;;;68.30;36.58;;;6.70;99.90;;;;;;5110485;28;20040;-74
2022/11/30 00:55:51;;;;;;;67.75;36.13;;;6.80;99.90;;;;;;5075418;28;20043;-74
2022/11/30 00:58:17;;;;;;;71.45;36.50;;;6.70;99.90;;;;;;5070179;28;20048;-74
2022/11/30 01:00:43;;;;;;;69.28;36.47;;;6.70;99.90;;;;;;5095475;28;20391;-74
2022/11/30 01:03:09;;;;;;;79.32;40.10;;;6.80;99.90;;;;;;5098255;28;20398;-74
2022/11/30 01:05:35;;;;;;;73.10;37.95;;;6.70;99.90;;;;;;5080291;28;20079;-74
2022/11/30 01:08:02;;;;;;;82.68;39.20;;;6.70;99.90;;;;;;5077965;28;20515;-74
2022/11/30 01:10:28;;;;;;;90.72;42.13;;;6.70;99.90;;;;;;5084681;28;20055;-74
2022/11/30 01:12:54;;;;;;;95.75;42.65;;;6.70;99.90;;;;;;5092207;28;20048;-74
2022/11/30 01:15:20;;;;;;;93.30;42.33;;;6.70;99.90;;;;;;5078350;28;20057;-74
2022/11/30 01:17:46;;;;;;;88.63;41.95;;;6.70;99.90;;;;;;5094715;28;20044;-74
2022/11/30 01:20:11;;;;;;;90.95;42.53;;;6.70;99.90;;;;;;5087654;28;20518;-74
2022/11/30 01:22:37;;;;;;;87.65;40.80;;;6.70;99.90;;;;;;5092875;28;20048;-74
2022/11/30 01:25:03;;;;;;;81.55;40.00;;;6.70;99.90;;;;;;5090006;28;20127;-74
2022/11/30 01:27:29;;;;;;;77.75;39.20;;;6.70;99.90;;;;;;5091157;28;20479;-75
2022/11/30 01:29:55;;;;;;;73.70;37.08;;;6.70;99.90;;;;;;5080028;28;20051;-74
2022/11/30 01:32:21;;;;;;;70.45;37.97;;;6.60;99.90;;;;;;5077475;28;20039;-74
2022/11/30 01:34:46;;;;;;;70.70;37.60;;;6.70;99.90;;;;;;5091228;28;20548;-74
2022/11/30 01:37:13;;;;;;;70.95;37.40;;;6.60;99.90;;;;;;5046347;28;20044;-74
2022/11/30 01:39:39;;;;;;;67.20;36.53;;;6.60;99.90;;;;;;5077320;28;20052;-74
2022/11/30 01:42:12;;;;;;;70.30;36.67;;;6.60;99.90;;;;;;5095863;28;20062;-75
2022/11/30 01:44:57;;;;;;;67.55;36.30;;;6.60;99.90;;;;;;5068982;28;20052;-74
2022/11/30 01:47:28;;;;;;;64.68;35.15;;;6.60;99.90;;;;;;5060285;28;20126;-74
2022/11/30 01:50:04;;;;;;;67.25;35.75;;;6.60;99.90;;;;;;5089807;28;20055;-74
2022/11/30 01:52:37;;;;;;;68.03;36.53;;;6.60;99.90;;;;;;5077091;28;20079;-74
2022/11/30 01:55:41;;;;;;;67.68;35.78;;;6.60;99.90;;;;;;5090066;28;20122;-74
2022/11/30 01:58:18;;;;;;;67.15;36.42;;;6.60;99.90;;;;;;5060355;28;20048;-74
2022/11/30 02:00:46;;;;;;;59.70;33.90;;;6.50;99.90;;;;;;5091441;28;20040;-74
2022/11/30 02:03:21;;;;;;;57.38;33.60;;;6.60;99.90;;;;;;5070763;28;20046;-74
2022/11/30 02:05:48;;;;;;;55.38;32.85;;;6.50;99.90;;;;;;5078024;28;20151;-74
2022/11/30 02:08:13;;;;;;;56.15;33.13;;;6.50;99.90;;;;;;5076837;28;20121;-74
2022/11/30 02:10:43;;;;;;;55.92;32.95;;;6.50;99.90;;;;;;5073515;28;20094;-74
2022/11/30 02:13:36;;;;;;;54.75;32.60;;;6.60;99.90;;;;;;5060402;28;20098;-73
2022/11/30 02:16:23;;;;;;;54.50;32.88;;;6.40;99.90;;;;;;5093219;28;20040;-74
2022/11/30 02:19:04;;;;;;;55.13;32.60;;;6.40;99.90;;;;;;5076574;28;20416;-74
2022/11/30 02:21:44;;;;;;;52.25;31.83;;;6.40;99.90;;;;;;5078368;28;20051;-74
2022/11/30 02:24:19;;;;;;;50.08;30.80;;;6.40;99.90;;;;;;5086910;28;20055;-74
2022/11/30 02:27:11;;;;;;;52.08;31.88;;;6.40;99.90;;;;;;5083083;28;20127;-74
2022/11/30 02:29:48;;;;;;;54.53;32.75;;;6.40;99.90;;;;;;5082574;28;20480;-74
2022/11/30 02:32:20;;;;;;;53.15;33.08;;;6.40;99.90;;;;;;5083702;28;20097;-74
2022/11/30 02:34:48;;;;;;;51.65;30.75;;;6.50;99.90;;;;;;5070378;28;20054;-74
2022/11/30 02:37:15;;;;;;;49.55;31.42;;;6.40;99.90;;;;;;5081969;28;20058;-74
2022/11/30 02:39:42;;;;;;;49.85;31.30;;;6.40;99.90;;;;;;5073111;28;20131;-74
2022/11/30 02:42:15;;;;;;;50.60;31.13;;;6.40;99.90;;;;;;5058642;28;20093;-74
2022/11/30 02:44:46;;;;;;;;;;;6.40;99.90;;;;;;5067976;28;20051;-74
2022/11/30 02:47:17;;;;;;;48.83;30.02;;;6.40;99.90;;;;;;5074833;28;20295;-73
2022/11/30 02:49:50;;;;;;;47.93;29.63;;;6.40;99.90;;;;;;5077875;28;20131;-74
2022/11/30 02:52:18;;;;;;;47.95;29.23;;;6.40;99.90;;;;;;5085410;28;20305;-74
2022/11/30 02:54:45;;;;;;;48.42;29.95;;;6.70;99.90;;;;;;5074029;28;20503;-75
2022/11/30 02:57:10;;;;;;;49.80;31.27;;;6.40;99.90;;;;;;5059077;28;20043;-74
2022/11/30 02:59:36;;;;;;;54.30;31.63;;;6.40;99.90;;;;;;5093557;28;20101;-74
2022/11/30 03:02:02;;;;;;;53.50;32.75;;;6.40;99.90;;;;;;5081713;28;20094;-74
2022/11/30 03:04:28;;;;;;;52.47;31.92;;;6.40;99.90;;;;;;5052391;28;20048;-74
2022/11/30 03:06:53;;;;;;;50.47;31.70;;;6.40;99.90;;;;;;5088910;28;20036;-74
2022/11/30 03:09:19;;;;;;;52.35;31.73;;;6.40;99.90;;;;;;5076667;28;20047;-74
2022/11/30 03:11:45;;;;;;;52.40;30.73;;;6.30;99.90;;;;;;5099335;28;20160;-74
2022/11/30 03:14:11;;;;;;;50.65;31.33;;;6.40;99.90;;;;;;5087216;28;20083;-74
2022/11/30 03:16:37;;;;;;;53.00;31.17;;;6.40;99.90;;;;;;5072965;28;20191;-74
2022/11/30 03:19:06;;;;;;;54.72;32.50;;;6.40;99.90;;;;;;5084872;28;20123;-73
2022/11/30 03:21:31;;;;;;;51.92;32.33;;;6.40;99.90;;;;;;5087861;28;20102;-74
2022/11/30 03:23:57;;;;;;;56.95;32.50;;;6.40;99.90;;;;;;5088383;28;20495;-74
2022/11/30 03:26:23;;;;;;;56.53;33.22;;;6.40;99.90;;;;;;5078383;28;20031;-74
2022/11/30 03:28:48;;;;;;;56.65;32.45;;;6.80;99.90;;;;;;5080212;28;20122;-74
2022/11/30 03:31:14;;;;;;;54.20;32.67;;;6.30;99.90;;;;;;5074842;28;20476;-74
2022/11/30 03:33:40;;;;;;;55.15;32.72;;;6.30;99.90;;;;;;5076160;28;20074;-74
2022/11/30 03:36:08;;;;;;;55.70;33.58;;;6.30;99.90;;;;;;5085957;28;20593;-74
2022/11/30 03:38:34;;;;;;;56.45;33.17;;;6.40;99.90;;;;;;5074435;28;20071;-74
2022/11/30 03:41:13;;;;;;;54.90;33.08;;;6.30;99.90;;;;;;5074770;28;20048;-74
2022/11/30 03:43:39;;;;;;;56.17;32.70;;;6.30;99.90;;;;;;5065454;28;20062;-74
2022/11/30 03:46:05;;;;;;;54.35;31.80;;;6.30;99.90;;;;;;5088992;28;20039;-74
2022/11/30 03:48:31;;;;;;;53.50;32.85;;;7.00;99.90;;;;;;5074915;28;20400;-74
2022/11/30 03:50:57;;;;;;;53.92;32.30;;;6.30;99.90;;;;;;5074817;28;20123;-74
2022/11/30 03:53:24;;;;;;;53.47;31.75;;;6.30;99.90;;;;;;5090953;28;20083;-74
2022/11/30 03:56:02;;;;;;;54.35;32.60;;;6.30;99.90;;;;;;5076726;28;20080;-74
2022/11/30 03:58:28;;;;;;;54.83;32.58;;;6.30;99.90;;;;;;5084994;28;20109;-73
2022/11/30 04:01:11;;;;;;;51.35;30.83;;;6.30;99.90;;;;;;5080953;28;20042;-74
2022/11/30 04:03:37;;;;;;;55.45;32.17;;;6.30;99.90;;;;;;5074957;28;20058;-74
2022/11/30 04:06:04;;;;;;;55.03;31.75;;;6.60;99.90;;;;;;5089076;28;20059;-74
2022/11/30 04:08:30;;;;;;;56.22;31.27;;;6.30;99.90;;;;;;5095031;28;20051;-74
2022/11/30 04:10:57;;;;;;;60.10;32.53;;;6.30;99.90;;;;;;5081027;28;20044;-74
2022/11/30 04:13:24;;;;;;;62.42;33.30;;;6.30;99.90;;;;;;5072093;28;20067;-73
2022/11/30 04:15:51;;;;;;;60.28;32.60;;;6.30;99.90;;;;;;5103699;28;20044;-74
2022/11/30 04:18:19;;;;;;;57.90;31.13;;;6.30;99.90;;;;;;5090440;28;20075;-74
2022/11/30 04:20:45;;;;;;;58.40;32.17;;;6.30;99.90;;;;;;5084440;28;20489;-74
2022/11/30 04:23:12;;;;;;;60.72;33.03;;;6.30;99.90;;;;;;5091660;28;20076;-74
2022/11/30 04:25:41;;;;;;;57.75;32.63;;;6.40;99.90;;;;;;5074399;28;20052;-74
2022/11/30 04:28:07;;;;;;;59.42;32.53;;;6.30;99.90;;;;;;5068677;28;20396;-74
2022/11/30 04:30:34;;;;;;;59.05;32.70;;;6.30;99.90;;;;;;5094996;28;20043;-76
2022/11/30 04:33:00;;;;;;;65.78;34.50;;;6.30;99.90;;;;;;5111934;28;20487;-76
2022/11/30 04:35:25;;;;;;;59.67;32.95;;;6.30;99.90;;;;;;5074130;28;20047;-76
2022/11/30 04:37:51;;;;;;;65.07;33.85;;;6.30;99.90;;;;;;5074112;28;20052;-76
2022/11/30 04:40:17;;;;;;;61.40;32.78;;;6.30;99.90;;;;;;5075444;28;20493;-74
2022/11/30 04:42:42;;;;;;;65.63;34.88;;;6.20;99.90;;;;;;5112715;28;20044;-73
2022/11/30 04:45:09;;;;;;;65.57;34.55;;;7.20;99.90;;;;;;5059660;28;20056;-74
2022/11/30 04:47:35;;;;;;;58.25;32.63;;;6.30;99.90;;;;;;5078254;28;20138;-74
2022/11/30 04:50:01;;;;;;;57.80;33.67;;;6.20;99.90;;;;;;5087072;28;20127;-73
2022/11/30 04:52:27;;;;;;;56.20;32.17;;;6.30;99.90;;;;;;5062876;28;20392;-74
2022/11/30 04:54:52;;;;;;;50.95;31.45;;;6.20;99.90;;;;;;5089514;28;20040;-73
2022/11/30 04:57:18;;;;;;;52.38;31.50;;;6.30;99.90;;;;;;5065014;28;20107;-73
2022/11/30 04:59:44;;;;;;;51.92;30.80;;;6.20;99.90;;;;;;5090240;28;20101;-74
2022/11/30 05:02:09;;;;;;;49.78;30.10;;;6.20;99.90;;;;;;5071571;28;20044;-74
2022/11/30 05:04:35;;;;;;;52.10;31.30;;;6.20;99.90;;;;;;5091927;28;20051;-74
2022/11/30 05:07:01;;;;;;;47.90;30.73;;;6.20;99.90;;;;;;5060177;28;20494;-73
2022/11/30 05:09:26;;;;;;;46.63;30.45;;;6.20;99.90;;;;;;5073761;28;20052;-74
2022/11/30 05:11:52;;;;;;;49.08;31.30;;;6.10;99.90;;;;;;5060925;28;20396;-73
2022/11/30 05:14:18;;;;;;;49.50;30.80;;;6.20;99.90;;;;;;5074533;28;20134;-74
2022/11/30 05:16:46;;;;;;;47.05;30.05;;;6.70;99.90;;;;;;5091628;28;20044;-73
2022/11/30 05:19:13;;;;;;;44.35;29.40;;;6.20;99.90;;;;;;5086599;28;20043;-74
2022/11/30 05:21:39;;;;;;;48.38;30.40;;;6.20;99.90;;;;;;5079728;28;20047;-74
2022/11/30 05:24:05;;;;;;;48.10;29.92;;;6.10;99.90;;;;;;5097875;28;20128;-74
2022/11/30 05:26:31;;;;;;;47.72;29.55;;;6.20;99.90;;;;;;5082891;28;20075;-74
2022/11/30 05:28:57;;;;;;;48.33;29.58;;;6.20;99.90;;;;;;5092835;28;20115;-74
2022/11/30 05:31:22;;;;;;;47.40;29.90;;;6.10;99.90;;;;;;5073638;28;20528;-74
2022/11/30 05:33:52;;;;;;;51.15;31.33;;;6.10;99.90;;;;;;5097133;28;20536;-74
2022/11/30 05:36:19;;;;;;;50.13;30.63;;;6.10;99.90;;;;;;5084030;28;20135;-74
2022/11/30 05:38:45;;;;;;;50.17;31.33;;;6.10;99.90;;;;;;5080928;28;20169;-74
2022/11/30 05:41:11;;;;;;;50.22;31.20;;;6.20;99.90;;;;;;5069837;28;20047;-74
2022/11/30 05:43:37;;;;;;;51.65;30.85;;;6.50;99.90;;;;;;5076670;28;20048;-74
2022/11/30 05:46:05;;;;;;;51.90;30.60;;;6.20;99.90;;;;;;5043837;28;20480;-74
2022/11/30 05:48:31;;;;;;;51.67;31.10;;;6.20;99.90;;;;;;5073080;28;20044;-74
2022/11/30 05:51:08;;;;;;;53.75;30.88;;;6.10;99.90;;;;;;5091786;28;20392;-74
2022/11/30 05:53:34;;;;;;;52.85;31.17;;;6.10;99.90;;;;;;5078212;28;20130;-74
2022/11/30 05:56:09;;;;;;;49.78;30.02;;;6.20;99.90;;;;;;5051450;28;20128;-73
2022/11/30 05:58:35;;;;;;;51.22;30.92;;;6.10;99.90;;;;;;5061428;28;20153;-73
2022/11/30 06:01:01;;;;;;;49.08;30.60;;;6.10;99.90;;;;;;5074367;28;20483;-73
2022/11/30 06:03:28;;;;;;;48.30;30.17;;;6.10;99.90;;;;;;5080583;28;20097;-73
2022/11/30 06:05:54;;;;;;;47.38;29.77;;;6.10;99.90;;;;;;5075601;28;20051;-73
2022/11/30 06:08:20;;;;;;;51.45;29.80;;;6.10;99.90;;;;;;5086702;28;20039;-73
2022/11/30 06:10:46;;;;;;;55.08;33.60;;;6.10;99.90;;;;;;5071300;28;20051;-74
2022/11/30 06:13:12;;;;;;;66.65;42.47;;;6.10;99.90;;;;;;5079272;28;20402;-74
2022/11/30 06:15:39;;;;;;;61.78;37.63;;;6.10;99.90;;;;;;5086553;28;20134;-73
2022/11/30 06:18:05;;;;;;;58.92;37.58;;;6.00;99.90;;;;;;5085141;28;20537;-74
2022/11/30 06:20:32;;;;;;;101.25;62.50;;;6.10;99.90;;;;;;5084516;28;20097;-74
2022/11/30 06:22:58;;;;;;;159.80;84.65;;;6.00;99.90;;;;;;5087420;28;20047;-73
2022/11/30 06:25:24;;;;;;;209.85;109.25;;;6.00;99.90;;;;;;5078948;28;20097;-74
2022/11/30 06:27:50;;;;;;;120.80;69.28;;;6.10;99.90;;;;;;5083585;28;20043;-74
2022/11/30 06:30:16;;;;;;;59.10;35.85;;;6.00;99.90;;;;;;5090974;28;20122;-73
2022/11/30 06:32:50;;;;;;;68.53;38.72;;;6.00;99.90;;;;;;5082558;28;20056;-73
2022/11/30 06:35:17;;;;;;;78.68;46.75;;;6.00;99.90;;;;;;5070653;28;20040;-73
2022/11/30 06:37:43;;;;;;;98.95;74.93;;;6.00;99.90;;;;;;5073088;28;20059;-73
2022/11/30 06:40:11;;;;;;;68.13;45.92;;;6.00;99.90;;;;;;5085633;28;20063;-73
2022/11/30 06:42:37;;;;;;;121.22;92.13;;;6.00;99.90;;;;;;5104624;28;20491;-73
2022/11/30 06:45:05;;;;;;;142.10;107.13;;;6.00;99.90;;;;;;5069419;28;20406;-73
2022/11/30 06:47:30;;;;;;;51.78;32.38;;;6.00;99.90;;;;;;5078675;28;20051;-74
2022/11/30 06:49:56;;;;;;;52.88;34.05;;;6.00;99.90;;;;;;5066379;28;20040;-74
2022/11/30 06:52:22;;;;;;;46.42;28.10;;;6.00;99.90;;;;;;5074668;28;20475;-73
2022/11/30 06:54:48;;;;;;;45.45;27.65;;;6.00;99.90;;;;;;5050780;28;20055;-74
2022/11/30 06:57:13;;;;;;;48.25;30.23;;;6.00;99.90;;;;;;5086254;28;20556;-74
2022/11/30 06:59:42;;;;;;;47.97;31.30;;;5.90;99.90;;;;;;5073773;28;20123;-73
2022/11/30 07:02:12;;;;;;;42.97;26.30;;;5.90;99.90;;;;;;5090548;28;20523;-73
2022/11/30 07:04:38;;;;;;;45.13;28.70;;;6.30;99.90;;;;;;5075403;28;20046;-73
2022/11/30 07:07:06;;;;;;;40.58;26.40;;;5.90;99.90;;;;;;5063151;28;20038;-73
2022/11/30 07:09:33;;;;;;;44.92;28.48;;;5.90;99.90;;;;;;5086317;28;20560;-73
2022/11/30 07:11:59;;;;;;;40.80;27.13;;;5.90;99.90;;;;;;5093076;28;20048;-73
2022/11/30 07:14:25;;;;;;;43.90;27.85;;;5.90;99.90;;;;;;5089296;28;20042;-74
2022/11/30 07:16:51;;;;;;;39.28;24.88;;;5.90;99.90;;;;;;5052387;28;20479;-73
2022/11/30 07:19:17;;;;;;;39.95;25.92;;;5.90;99.90;;;;;;5075150;28;20052;-72
2022/11/30 07:21:43;;;;;;;37.20;23.92;;;5.90;99.90;;;;;;5094353;28;20035;-73
2022/11/30 07:26:57;;;;;;;35.05;23.85;;;5.90;99.90;;;;;;5100942;28;20119;-73
2022/11/30 07:29:23;;;;;;;34.25;23.65;;;6.50;99.90;;;;;;5076479;28;20094;-74
2022/11/30 07:31:52;;;;;;;35.88;23.60;;;5.90;99.90;;;;;;5077872;28;20492;-74
2022/11/30 07:34:19;;;;;;;35.45;24.95;;;6.00;99.90;;;;;;5074211;28;20052;-74
2022/11/30 07:36:45;;;;;;;35.05;22.13;;;5.90;99.90;;;;;;5082675;28;20074;-74
2022/11/30 07:39:12;;;;;;;34.05;22.80;;;5.90;99.90;;;;;;5066450;28;20406;-73
2022/11/30 07:41:39;;;;;;;31.98;22.60;;;5.90;99.90;;;;;;5080820;28;20404;-74
2022/11/30 07:44:05;;;;;;;35.22;22.88;;;5.90;99.90;;;;;;5066327;28;20050;-72
2022/11/30 07:46:34;;;;;;;51.53;39.28;;;5.90;99.90;;;;;;5071945;28;20044;-73
2022/11/30 07:49:03;;;;;;;203.60;181.63;;;5.90;99.90;;;;;;5085599;28;20047;-73
2022/11/30 07:51:29;;;;;;;108.53;82.40;;;5.90;99.90;;;;;;5074603;28;20443;-74
2022/11/30 07:53:55;;;;;;;76.88;56.60;;;5.90;99.90;;;;;;5083988;28;20122;-73
2022/11/30 07:56:22;;;;;;;44.08;33.75;;;5.90;99.90;;;;;;5070822;28;20038;-72
2022/11/30 07:58:50;;;;;;;38.50;30.30;;;5.90;99.90;;;;;;5071314;28;20057;-73
2022/11/30 08:01:18;;;;;;;41.30;32.33;;;5.90;99.90;;;;;;5076372;28;20047;-73
2022/11/30 08:03:44;;;;;;;37.38;26.35;;;5.90;99.90;;;;;;5082025;28;20040;-73
2022/11/30 08:06:29;;;;;;;35.25;24.60;;;5.90;99.90;;;;;;5088076;28;20127;-73
2022/11/30 08:09:02;;;;;;;34.70;24.17;;;5.90;99.90;;;;;;5079877;28;20048;-73
2022/11/30 08:11:32;;;;;;;33.70;24.05;;;5.90;99.90;;;;;;5084283;28;20043;-73
2022/11/30 08:13:59;;;;;;;32.45;22.63;;;5.90;99.90;;;;;;5067967;28;20111;-73
2022/11/30 08:16:27;;;;;;;31.88;22.10;;;5.90;99.90;;;;;;5076042;28;20048;-74
2022/11/30 08:18:54;;;;;;;31.90;23.50;;;5.90;99.90;;;;;;5076086;28;20052;-74
2022/11/30 08:21:21;;;;;;;34.00;23.35;;;5.90;99.90;;;;;;5071634;28;20056;-73
2022/11/30 08:23:52;;;;;;;32.10;22.45;;;5.90;99.90;;;;;;5090653;28;20059;-73
2022/11/30 08:26:24;;;;;;;33.80;25.00;;;5.90;99.90;;;;;;5086242;28;20040;-73
2022/11/30 08:28:50;;;;;;;34.63;25.48;;;5.90;99.90;;;;;;5087805;28;20052;-73
2022/11/30 08:31:22;;;;;;;31.02;22.05;;;5.90;99.90;;;;;;5063106;28;20047;-73
2022/11/30 08:33:48;;;;;;;30.63;21.67;;;6.50;99.90;;;;;;5090775;28;20521;-73
2022/11/30 08:36:18;;;;;;;29.08;21.63;;;6.10;99.90;;;;;;5090154;28;20044;-73
2022/11/30 08:38:44;;;;;;;29.10;19.85;;;5.90;99.90;;;;;;5106186;28;20044;-72
2022/11/30 08:41:12;;;;;;;29.45;21.40;;;5.90;99.90;;;;;;5070531;28;20048;-73
2022/11/30 08:43:38;;;;;;;29.08;21.08;;;5.90;99.90;;;;;;5078189;28;20124;-73
2022/11/30 08:46:06;;;;;;;27.98;20.90;;;5.90;99.90;;;;;;5072992;28;20044;-73
2022/11/30 08:48:33;;;;;;;25.45;20.02;;;5.90;99.90;;;;;;5089661;28;20453;-73
2022/11/30 08:51:00;;;;;;;26.38;19.70;;;5.90;99.90;;;;;;5077508;28;20032;-73
2022/11/30 08:53:26;;;;;;;25.67;19.25;;;5.90;99.90;;;;;;5085598;28;20044;-73
2022/11/30 08:56:01;;;;;;;26.20;19.88;;;5.90;99.90;;;;;;5075656;28;20048;-72
2022/11/30 08:58:29;;;;;;;28.02;19.75;;;5.90;99.90;;;;;;5077903;28;20057;-73
2022/11/30 09:01:10;;;;;;;27.85;20.08;;;5.90;99.90;;;;;;5084324;28;20046;-73
2022/11/30 09:03:36;;;;;;;29.45;20.40;;;5.90;99.90;;;;;;5087132;28;20054;-72
2022/11/30 09:06:07;;;;;;;26.58;19.95;;;5.90;99.90;;;;;;5081725;28;20127;-73
2022/11/30 09:08:34;;;;;;;31.00;21.92;;;5.90;99.90;;;;;;5069047;28;20075;-73
2022/11/30 09:11:20;;;;;;;30.13;20.67;;;5.80;99.90;;;;;;5077670;28;20036;-73
2022/11/30 09:13:47;;;;;;;29.35;20.60;;;5.90;99.90;;;;;;5083244;28;20048;-72
2022/11/30 09:16:14;;;;;;;28.73;20.60;;;5.90;99.90;;;;;;5077211;28;20058;-73
2022/11/30 09:18:41;;;;;;;29.85;20.77;;;5.90;99.90;;;;;;5077644;28;20036;-72
2022/11/30 09:21:10;;;;;;;27.98;20.33;;;5.90;99.90;;;;;;5077086;28;20048;-73
2022/11/30 09:23:37;;;;;;;28.52;20.42;;;6.80;99.90;;;;;;5077298;28;20112;-73
2022/11/30 09:26:05;;;;;;;29.25;21.15;;;5.90;99.90;;;;;;5077471;28;20127;-73
2022/11/30 09:28:32;;;;;;;29.25;21.00;;;5.90;99.90;;;;;;5046757;28;20063;-73
2022/11/30 09:31:12;;;;;;;27.80;20.65;;;6.00;99.90;;;;;;5077494;28;20044;-73
2022/11/30 09:33:38;;;;;;;27.88;20.42;;;6.00;99.90;;;;;;5075896;28;20395;-73
2022/11/30 09:36:09;;;;;;;30.58;20.85;;;6.00;99.90;;;;;;5076289;28;20093;-73
2022/11/30 09:38:35;;;;;;;28.73;20.80;;;6.00;99.90;;;;;;5062937;28;20044;-73
2022/11/30 09:41:05;;;;;;;33.83;23.23;;;6.00;99.90;;;;;;5071254;28;20060;-73
2022/11/30 09:43:47;;;;;;;29.65;20.40;;;6.00;99.90;;;;;;5076217;28;20184;-73
2022/11/30 09:46:13;;;;;;;29.98;20.63;;;6.00;99.90;;;;;;5060121;28;20044;-73
2022/11/30 09:48:57;;;;;;;28.38;20.25;;;6.00;99.90;;;;;;5078658;28;20499;-73
2022/11/30 09:51:27;;;;;;;25.63;18.60;;;6.10;99.90;;;;;;5085806;28;20036;-72
2022/11/30 09:54:07;;;;;;;27.05;19.48;;;6.10;99.90;;;;;;5079540;28;20440;-73
2022/11/30 09:56:37;;;;;;;25.77;18.15;;;6.10;99.90;;;;;;5102558;28;20449;-73
2022/11/30 09:59:28;;;;;;;27.73;19.08;;;6.20;99.90;;;;;;5089257;28;20047;-72
2022/11/30 10:01:56;;;;;;;27.02;18.73;;;6.10;99.90;;;;;;5082826;28;20169;-72
2022/11/30 10:04:25;;;;;;;24.38;18.52;;;6.20;99.90;;;;;;5059732;28;20044;-73
2022/11/30 10:07:26;;;;;;;24.58;18.35;;;6.20;99.90;;;;;;5075361;28;20072;-72
2022/11/30 10:10:00;;;;;;;27.50;20.00;;;6.20;99.90;;;;;;5094794;28;20114;-73
2022/11/30 10:12:40;;;;;;;28.45;19.50;;;6.10;99.90;;;;;;5085483;28;20063;-73
2022/11/30 10:15:13;;;;;;;26.55;19.15;;;6.00;99.90;;;;;;5082303;28;20108;-73
2022/11/30 10:17:41;;;;;;;29.25;21.50;;;6.10;99.90;;;;;;5096841;28;20128;-73
2022/11/30 10:20:16;;;;;;;29.40;21.67;;;6.10;99.90;;;;;;5081450;28;20044;-72
2022/11/30 10:23:24;;;;;;;29.40;21.58;;;6.10;99.90;;;;;;5084467;28;20125;-72
2022/11/30 10:25:56;;;;;;;27.80;20.17;;;6.10;99.90;;;;;;5075846;28;20059;-73
2022/11/30 10:28:37;;;;;;;26.40;19.85;;;6.10;99.90;;;;;;5075478;28;20062;-73
2022/11/30 10:31:04;;;;;;;29.70;21.27;;;6.10;99.90;;;;;;5083650;28;20051;-73
2022/11/30 10:33:39;;;;;;;28.60;20.95;;;6.10;99.90;;;;;;5080950;28;20054;-73
2022/11/30 10:36:14;;;;;;;27.45;19.95;;;6.10;99.90;;;;;;5084424;28;20053;-73
2022/11/30 10:38:51;;;;;;;31.17;21.25;;;6.10;99.90;;;;;;5089070;28;20051;-73
2022/11/30 10:41:43;;;;;;;30.10;21.92;;;6.10;99.90;;;;;;5070823;28;20046;-73
2022/11/30 10:44:23;;;;;;;31.55;22.45;;;6.10;99.90;;;;;;5082897;28;20395;-72
2022/11/30 10:47:01;;;;;;;29.55;21.92;;;6.10;99.90;;;;;;5094540;28;20051;-73
2022/11/30 10:49:29;;;;;;;30.00;21.98;;;6.10;99.90;;;;;;5084829;28;20036;-72
2022/11/30 10:52:01;;;;;;;28.63;20.70;;;6.20;99.90;;;;;;5093843;28;20059;-72
2022/11/30 10:54:29;;;;;;;28.98;21.38;;;6.20;99.90;;;;;;5083888;28;20070;-72
2022/11/30 10:56:57;;;;;;;27.83;20.80;;;6.20;99.90;;;;;;5081717;28;20058;-73
2022/11/30 10:59:45;;;;;;;29.88;21.63;;;6.30;99.90;;;;;;5084885;28;20044;-72
2022/11/30 11:02:35;;;;;;;31.08;22.10;;;6.30;99.90;;;;;;5078640;28;20048;-72
2022/11/30 11:05:13;;;;;;;33.13;22.08;;;6.30;99.90;;;;;;5074891;28;20484;-72
2022/11/30 11:08:15;;;;;;;31.23;21.77;;;6.30;99.90;;;;;;5062295;28;20090;-72
2022/11/30 11:10:48;;;;;;;33.03;22.77;;;6.30;99.90;;;;;;5076320;28;20046;-72
2022/11/30 11:13:37;;;;;;;39.00;25.92;;;6.30;99.90;;;;;;5078724;28;20199;-72
2022/11/30 11:16:05;;;;;;;35.40;22.85;;;6.30;99.90;;;;;;5075426;28;20046;-72
2022/11/30 11:18:32;;;;;;;36.25;24.63;;;6.30;99.90;;;;;;5081730;28;20040;-71
2022/11/30 11:21:05;;;;;;;35.47;24.55;;;6.40;99.90;;;;;;5061994;28;20066;-71
2022/11/30 11:23:40;;;;;;;44.65;26.73;;;6.30;99.90;;;;;;5085960;28;20377;-71
2022/11/30 11:26:18;;;;;;;42.22;27.38;;;6.30;99.90;;;;;;5093749;28;20050;-71
2022/11/30 11:28:46;;;;;;;43.33;26.17;;;6.30;99.90;;;;;;5095580;28;20047;-71
2022/11/30 11:31:35;;;;;;;45.65;27.83;;;6.30;99.90;;;;;;5087297;28;20047;-71
2022/11/30 11:34:02;;;;;;;46.63;27.70;;;6.20;99.90;;;;;;5074798;28;20077;-72
2022/11/30 11:36:35;;;;;;;50.40;29.15;;;6.20;99.90;;;;;;5079952;28;20134;-72
2022/11/30 11:39:02;;;;;;;50.22;29.35;;;6.20;99.90;;;;;;5082405;28;20492;-72
2022/11/30 11:41:33;;;;;;;53.28;31.40;;;6.20;99.90;;;;;;5074030;28;20487;-72
2022/11/30 11:44:08;;;;;;;56.77;31.73;;;6.20;99.90;;;;;;5088763;28;20039;-72
2022/11/30 11:46:50;;;;;;;54.75;31.85;;;6.10;99.90;;;;;;5088715;28;20285;-72
2022/11/30 11:49:36;;;;;;;52.40;31.20;;;6.10;99.90;;;;;;5089158;28;20047;-72
2022/11/30 11:52:19;;;;;;;51.50;30.85;;;6.10;99.90;;;;;;5093890;28;20042;-72
2022/11/30 11:54:59;;;;;;;52.55;31.98;;;6.10;99.90;;;;;;5088530;28;20544;-71
2022/11/30 11:57:39;;;;;;;51.15;33.22;;;6.10;99.90;;;;;;5101466;28;20130;-71
2022/11/30 12:00:14;;;;;;;51.53;31.65;;;5.90;99.90;;;;;;5101461;28;20048;-71
2022/11/30 12:03:13;;;;;;;52.25;33.00;;;6.20;99.90;;;;;;5079211;28;20044;-72
2022/11/30 12:05:50;;;;;;;53.60;33.00;;;6.20;99.90;;;;;;5088907;28;20461;-72
2022/11/30 12:08:34;;;;;;;59.33;35.38;;;6.20;99.90;;;;;;5089675;28;20481;-71
2022/11/30 12:11:01;;;;;;;63.30;36.25;;;6.20;99.90;;;;;;5083811;28;20104;-72
2022/11/30 12:13:36;;;;;;;59.95;35.17;;;6.20;99.90;;;;;;5089778;28;20061;-72
2022/11/30 12:16:26;;;;;;;60.58;35.65;;;6.20;99.90;;;;;;5092256;28;20641;-72
2022/11/30 12:19:07;;;;;;;65.28;35.97;;;6.30;99.90;;;;;;5088935;28;20066;-72
2022/11/30 12:21:47;;;;;;;66.30;36.75;;;6.20;99.90;;;;;;5087481;28;20059;-72
2022/11/30 12:24:31;;;;;;;66.60;35.70;;;6.20;99.90;;;;;;5092761;28;20039;-72
2022/11/30 12:27:29;;;;;;;68.22;35.63;;;6.30;99.90;;;;;;5077537;28;20467;-72
2022/11/30 12:30:09;;;;;;;66.32;34.80;;;6.20;99.90;;;;;;5075462;28;20059;-71
2022/11/30 12:33:09;;;;;;;61.88;34.83;;;6.30;99.90;;;;;;5094318;28;20079;-72
2022/11/30 12:35:59;;;;;;;63.95;35.85;;;6.20;99.90;;;;;;5094039;28;20088;-71
2022/11/30 12:38:46;;;;;;;66.57;36.15;;;6.20;99.90;;;;;;5087944;28;20075;-72
2022/11/30 12:41:29;;;;;;;79.57;40.35;;;6.20;99.90;;;;;;5084244;28;20040;-72
2022/11/30 12:44:19;;;;;;;68.80;37.92;;;6.20;99.90;;;;;;5076976;28;20486;-72
2022/11/30 12:47:04;;;;;;;94.45;47.50;;;6.20;99.90;;;;;;5093313;28;20522;-72
2022/11/30 12:50:11;;;;;;;87.90;42.65;;;6.20;99.90;;;;;;5067111;28;20399;-71
2022/11/30 12:52:36;;;;;;;86.55;40.67;;;6.20;99.90;;;;;;5065387;28;20045;-71
2022/11/30 12:55:13;;;;;;;79.68;39.40;;;6.10;99.90;;;;;;5050312;28;20105;-74
2022/11/30 12:57:53;;;;;;;79.95;40.67;;;6.10;99.90;;;;;;5076510;28;20440;-72